This is the latest recevied weather packets stored in our database for station/object K3RUP-1. If no packets are shown the sender has not sent any weather packets the latest 10 day(s).
| Time | Temp. | Humidity | Pressure | Rain* | Wind** | Luminosity | Snow |
|---|---|---|---|---|---|---|---|
| 1777676864 | 15.56° C | 57% | 1010.4 hPa | 0 mm | - | 16 W/m² | - |
| 1777676563 | 15.56° C | 57% | 1010.5 hPa | 0 mm | - | 19 W/m² | - |
| 1777676260 | 15.56° C | 57% | 1010.2 hPa | 0 mm | - | 21 W/m² | - |
| 1777675957 | 16.11° C | 56% | 1010.2 hPa | 0 mm | - | 23 W/m² | - |
| 1777675653 | 16.11° C | 57% | 1010.2 hPa | 0 mm | - | 24 W/m² | - |
| 1777675351 | 16.11° C | 58% | 1010.2 hPa | 0 mm | - | 26 W/m² | - |
| 1777675047 | 16.11° C | 55% | 1010.5 hPa | 0 mm | - | 28 W/m² | - |
| 1777674744 | 16.11° C | 56% | 1010.3 hPa | 0 mm | - | 29 W/m² | - |
| 1777674440 | 16.67° C | 55% | 1010.2 hPa | 0 mm | - | 30 W/m² | - |
| 1777674138 | 16.67° C | 55% | 1010.5 hPa | 0 mm | - | 32 W/m² | - |
| 1777673834 | 16.67° C | 54% | 1010.5 hPa | 0 mm | - | 32 W/m² | - |
| 1777673531 | 16.67° C | 55% | 1010.2 hPa | 0 mm | - | 33 W/m² | - |
| 1777673229 | 17.22° C | 54% | 1010.5 hPa | 0 mm | - | 53 W/m² | - |
| 1777672926 | 17.22° C | 54% | 1010.4 hPa | 0 mm | - | 191 W/m² | - |
| 1777672623 | 16.67° C | 56% | 1010.5 hPa | 0 mm | - | 50 W/m² | - |
| 1777672317 | 17.22° C | 55% | 1010.7 hPa | 0 mm | - | 40 W/m² | - |
| 1777672013 | 17.22° C | 54% | 1010.7 hPa | 0 mm | - | 92 W/m² | - |
| 1777671708 | 17.22° C | 52% | 1010.4 hPa | 0 mm | - | 146 W/m² | - |
| 1777671406 | 17.22° C | 53% | 1010.5 hPa | 0 mm | - | 63 W/m² | - |
| 1777671101 | 17.22° C | 52% | 1010.5 hPa | 0 mm | - | 67 W/m² | - |
| 1777670798 | 17.22° C | 51% | 1010.5 hPa | 0 mm | - | 147 W/m² | - |
| 1777670495 | 16.67° C | 51% | 1010.3 hPa | 0 mm | - | 279 W/m² | - |
| 1777670191 | 16.67° C | 53% | 1010.5 hPa | 0 mm | - | 60 W/m² | - |
| 1777669889 | 17.22° C | 53% | 1010.4 hPa | 0 mm | - | 70 W/m² | - |
| 1777669586 | 17.22° C | 53% | 1010.4 hPa | 0 mm | - | 153 W/m² | - |
* Rain latest hour (hover to see other rain measurements)
** Current wind speed in m/s (hover to see current wind gust speed)